sensor_id;sensor_type;location;lat;lon;timestamp;pressure;altitude;pressure_sealevel;temperature
80537;BMP280;69867;47.074;15.404;2023-12-22T00:00:05;95343.66;;;7.07
80537;BMP280;69867;47.074;15.404;2023-12-22T00:02:31;95306.53;;;6.72
80537;BMP280;69867;47.074;15.404;2023-12-22T00:04:56;95295.41;;;6.52
80537;BMP280;69867;47.074;15.404;2023-12-22T00:07:21;95292.78;;;6.33
80537;BMP280;69867;47.074;15.404;2023-12-22T00:09:47;95301.56;;;6.08
80537;BMP280;69867;47.074;15.404;2023-12-22T00:12:12;95279.34;;;5.84
80537;BMP280;69867;47.074;15.404;2023-12-22T00:14:37;95273.22;;;5.66
80537;BMP280;69867;47.074;15.404;2023-12-22T00:17:03;95255.06;;;5.49
80537;BMP280;69867;47.074;15.404;2023-12-22T00:19:28;95259.19;;;5.31
80537;BMP280;69867;47.074;15.404;2023-12-22T00:21:54;95273.72;;;5.10
80537;BMP280;69867;47.074;15.404;2023-12-22T00:24:19;95288.56;;;5.04
80537;BMP280;69867;47.074;15.404;2023-12-22T00:26:44;95315.84;;;5.08
80537;BMP280;69867;47.074;15.404;2023-12-22T00:29:10;95323.69;;;5.05
80537;BMP280;69867;47.074;15.404;2023-12-22T00:31:35;95330.50;;;5.06
80537;BMP280;69867;47.074;15.404;2023-12-22T00:34:00;95340.34;;;5.18
80537;BMP280;69867;47.074;15.404;2023-12-22T00:36:26;95319.31;;;5.30
80537;BMP280;69867;47.074;15.404;2023-12-22T00:38:51;95292.25;;;5.20
80537;BMP280;69867;47.074;15.404;2023-12-22T00:41:17;95256.66;;;5.08
80537;BMP280;69867;47.074;15.404;2023-12-22T00:43:42;95233.63;;;5.05
80537;BMP280;69867;47.074;15.404;2023-12-22T00:46:07;95245.84;;;5.00
80537;BMP280;69867;47.074;15.404;2023-12-22T00:48:33;95271.97;;;4.89
80537;BMP280;69867;47.074;15.404;2023-12-22T00:50:58;95297.16;;;4.81
80537;BMP280;69867;47.074;15.404;2023-12-22T00:53:24;95333.06;;;4.84
80537;BMP280;69867;47.074;15.404;2023-12-22T00:55:49;95341.81;;;5.02
80537;BMP280;69867;47.074;15.404;2023-12-22T00:58:14;95349.06;;;5.37
80537;BMP280;69867;47.074;15.404;2023-12-22T01:00:40;95387.00;;;5.99
80537;BMP280;69867;47.074;15.404;2023-12-22T01:03:05;95405.94;;;6.61
80537;BMP280;69867;47.074;15.404;2023-12-22T01:05:30;95405.16;;;6.59
80537;BMP280;69867;47.074;15.404;2023-12-22T01:07:56;95389.59;;;6.81
80537;BMP280;69867;47.074;15.404;2023-12-22T01:10:21;95398.66;;;6.70
80537;BMP280;69867;47.074;15.404;2023-12-22T01:12:46;95437.81;;;6.80
80537;BMP280;69867;47.074;15.404;2023-12-22T01:15:12;95448.16;;;6.99
80537;BMP280;69867;47.074;15.404;2023-12-22T01:17:37;95465.78;;;7.10
80537;BMP280;69867;47.074;15.404;2023-12-22T01:20:03;95470.16;;;7.07
80537;BMP280;69867;47.074;15.404;2023-12-22T01:22:28;95464.94;;;7.09
80537;BMP280;69867;47.074;15.404;2023-12-22T01:24:54;95434.47;;;7.17
80537;BMP280;69867;47.074;15.404;2023-12-22T01:27:19;95442.56;;;7.28
80537;BMP280;69867;47.074;15.404;2023-12-22T01:29:44;95441.97;;;7.03
80537;BMP280;69867;47.074;15.404;2023-12-22T01:32:10;95451.53;;;7.01
80537;BMP280;69867;47.074;15.404;2023-12-22T01:34:35;95466.38;;;6.96
80537;BMP280;69867;47.074;15.404;2023-12-22T01:37:01;95487.03;;;6.96
80537;BMP280;69867;47.074;15.404;2023-12-22T01:39:26;95490.19;;;6.82
80537;BMP280;69867;47.074;15.404;2023-12-22T01:41:51;95494.19;;;6.69
80537;BMP280;69867;47.074;15.404;2023-12-22T01:44:17;95504.06;;;6.59
80537;BMP280;69867;47.074;15.404;2023-12-22T01:46:42;95491.47;;;6.52
80537;BMP280;69867;47.074;15.404;2023-12-22T01:49:08;95494.97;;;6.49
80537;BMP280;69867;47.074;15.404;2023-12-22T01:51:37;95487.91;;;6.54
80537;BMP280;69867;47.074;15.404;2023-12-22T01:54:04;95488.50;;;6.61
80537;BMP280;69867;47.074;15.404;2023-12-22T01:56:30;95490.84;;;6.67
80537;BMP280;69867;47.074;15.404;2023-12-22T01:58:59;95506.25;;;6.89
80537;BMP280;69867;47.074;15.404;2023-12-22T02:01:25;95508.19;;;6.84
80537;BMP280;69867;47.074;15.404;2023-12-22T02:03:51;95508.38;;;6.79
80537;BMP280;69867;47.074;15.404;2023-12-22T02:06:17;95492.97;;;6.78
80537;BMP280;69867;47.074;15.404;2023-12-22T02:08:43;95496.44;;;6.77
80537;BMP280;69867;47.074;15.404;2023-12-22T02:11:10;95495.28;;;6.84
80537;BMP280;69867;47.074;15.404;2023-12-22T02:13:35;95504.72;;;6.85
80537;BMP280;69867;47.074;15.404;2023-12-22T02:16:04;95520.25;;;7.03
80537;BMP280;69867;47.074;15.404;2023-12-22T02:18:34;95529.31;;;6.93
80537;BMP280;69867;47.074;15.404;2023-12-22T02:21:00;95561.38;;;6.88
80537;BMP280;69867;47.074;15.404;2023-12-22T02:23:26;95592.09;;;6.94
80537;BMP280;69867;47.074;15.404;2023-12-22T02:25:57;95607.59;;;6.94
80537;BMP280;69867;47.074;15.404;2023-12-22T02:28:26;95613.91;;;7.07
80537;BMP280;69867;47.074;15.404;2023-12-22T02:33:28;95588.53;;;6.96
80537;BMP280;69867;47.074;15.404;2023-12-22T02:35:58;95570.25;;;6.81
80537;BMP280;69867;47.074;15.404;2023-12-22T02:38:28;95564.69;;;6.69
80537;BMP280;69867;47.074;15.404;2023-12-22T02:40:55;95549.59;;;6.60
80537;BMP280;69867;47.074;15.404;2023-12-22T02:43:21;95519.72;;;6.55
80537;BMP280;69867;47.074;15.404;2023-12-22T02:45:50;95532.47;;;6.36
80537;BMP280;69867;47.074;15.404;2023-12-22T02:48:15;95529.13;;;6.34
80537;BMP280;69867;47.074;15.404;2023-12-22T02:50:41;95524.91;;;6.31
80537;BMP280;69867;47.074;15.404;2023-12-22T02:53:06;95535.78;;;6.18
80537;BMP280;69867;47.074;15.404;2023-12-22T02:55:31;95536.91;;;6.10
80537;BMP280;69867;47.074;15.404;2023-12-22T02:57:57;95543.97;;;6.05
80537;BMP280;69867;47.074;15.404;2023-12-22T03:00:22;95553.91;;;5.93
80537;BMP280;69867;47.074;15.404;2023-12-22T03:02:48;95560.03;;;5.90
80537;BMP280;69867;47.074;15.404;2023-12-22T03:05:13;95547.03;;;5.93
80537;BMP280;69867;47.074;15.404;2023-12-22T03:07:38;95547.56;;;5.78
80537;BMP280;69867;47.074;15.404;2023-12-22T03:10:04;95537.50;;;5.72
80537;BMP280;69867;47.074;15.404;2023-12-22T03:12:29;95553.13;;;5.67
80537;BMP280;69867;47.074;15.404;2023-12-22T03:14:55;95561.69;;;5.68
80537;BMP280;69867;47.074;15.404;2023-12-22T03:17:20;95567.84;;;5.64
80537;BMP280;69867;47.074;15.404;2023-12-22T03:19:45;95571.31;;;5.63
80537;BMP280;69867;47.074;15.404;2023-12-22T03:22:11;95569.56;;;5.63
80537;BMP280;69867;47.074;15.404;2023-12-22T03:24:36;95564.47;;;5.62
80537;BMP280;69867;47.074;15.404;2023-12-22T03:27:02;95584.31;;;5.60
80537;BMP280;69867;47.074;15.404;2023-12-22T03:29:27;95586.25;;;5.53
80537;BMP280;69867;47.074;15.404;2023-12-22T03:31:52;95590.47;;;5.56
80537;BMP280;69867;47.074;15.404;2023-12-22T03:34:18;95585.38;;;5.54
80537;BMP280;69867;47.074;15.404;2023-12-22T03:36:43;95572.50;;;5.54
80537;BMP280;69867;47.074;15.404;2023-12-22T03:39:08;95577.03;;;5.71
80537;BMP280;69867;47.074;15.404;2023-12-22T03:41:34;95589.56;;;5.57
80537;BMP280;69867;47.074;15.404;2023-12-22T03:43:59;95594.72;;;5.80
80537;BMP280;69867;47.074;15.404;2023-12-22T03:46:25;95601.28;;;5.65
80537;BMP280;69867;47.074;15.404;2023-12-22T03:48:51;95563.53;;;5.64
80537;BMP280;69867;47.074;15.404;2023-12-22T03:51:16;95616.22;;;5.56
80537;BMP280;69867;47.074;15.404;2023-12-22T03:53:42;95638.75;;;5.74
80537;BMP280;69867;47.074;15.404;2023-12-22T03:56:08;95609.63;;;5.72
80537;BMP280;69867;47.074;15.404;2023-12-22T03:58:33;95627.59;;;5.73
80537;BMP280;69867;47.074;15.404;2023-12-22T04:00:59;95614.88;;;5.69
80537;BMP280;69867;47.074;15.404;2023-12-22T04:03:24;95615.78;;;5.68
80537;BMP280;69867;47.074;15.404;2023-12-22T04:05:49;95639.13;;;5.63
80537;BMP280;69867;47.074;15.404;2023-12-22T04:08:14;95648.81;;;5.57
80537;BMP280;69867;47.074;15.404;2023-12-22T04:10:40;95644.66;;;5.53
80537;BMP280;69867;47.074;15.404;2023-12-22T04:13:05;95668.66;;;5.78
80537;BMP280;69867;47.074;15.404;2023-12-22T04:15:31;95669.63;;;5.75
80537;BMP280;69867;47.074;15.404;2023-12-22T04:17:56;95663.34;;;6.07
80537;BMP280;69867;47.074;15.404;2023-12-22T04:20:21;95662.06;;;6.19
80537;BMP280;69867;47.074;15.404;2023-12-22T04:22:47;95662.06;;;6.19
80537;BMP280;69867;47.074;15.404;2023-12-22T04:25:12;95661.03;;;6.23
80537;BMP280;69867;47.074;15.404;2023-12-22T04:27:37;95672.72;;;6.10
80537;BMP280;69867;47.074;15.404;2023-12-22T04:30:03;95671.31;;;6.01
80537;BMP280;69867;47.074;15.404;2023-12-22T04:32:28;95710.88;;;6.00
80537;BMP280;69867;47.074;15.404;2023-12-22T04:34:54;95682.84;;;5.91
80537;BMP280;69867;47.074;15.404;2023-12-22T04:37:19;95702.25;;;6.01
80537;BMP280;69867;47.074;15.404;2023-12-22T04:39:44;95725.91;;;6.13
80537;BMP280;69867;47.074;15.404;2023-12-22T04:42:10;95698.53;;;6.08
80537;BMP280;69867;47.074;15.404;2023-12-22T04:44:35;95705.59;;;6.03
80537;BMP280;69867;47.074;15.404;2023-12-22T04:47:01;95666.59;;;6.13
80537;BMP280;69867;47.074;15.404;2023-12-22T04:49:26;95633.53;;;6.24
80537;BMP280;69867;47.074;15.404;2023-12-22T04:51:51;95665.16;;;6.05
80537;BMP280;69867;47.074;15.404;2023-12-22T04:54:17;95667.81;;;6.02
80537;BMP280;69867;47.074;15.404;2023-12-22T04:56:42;95685.75;;;6.05
80537;BMP280;69867;47.074;15.404;2023-12-22T04:59:07;95638.69;;;6.00
80537;BMP280;69867;47.074;15.404;2023-12-22T05:01:33;95652.22;;;5.82
80537;BMP280;69867;47.074;15.404;2023-12-22T05:03:58;95663.00;;;5.68
80537;BMP280;69867;47.074;15.404;2023-12-22T05:06:24;95643.72;;;5.55
80537;BMP280;69867;47.074;15.404;2023-12-22T05:08:49;95639.63;;;5.50
80537;BMP280;69867;47.074;15.404;2023-12-22T05:11:14;95674.66;;;5.54
80537;BMP280;69867;47.074;15.404;2023-12-22T05:13:40;95667.00;;;5.52
80537;BMP280;69867;47.074;15.404;2023-12-22T05:16:05;95660.38;;;5.45
80537;BMP280;69867;47.074;15.404;2023-12-22T05:18:30;95669.00;;;5.44
80537;BMP280;69867;47.074;15.404;2023-12-22T05:20:56;95640.63;;;5.45
80537;BMP280;69867;47.074;15.404;2023-12-22T05:23:21;95641.50;;;5.44
80537;BMP280;69867;47.074;15.404;2023-12-22T05:25:46;95632.22;;;5.40
80537;BMP280;69867;47.074;15.404;2023-12-22T05:28:12;95617.31;;;5.49
80537;BMP280;69867;47.074;15.404;2023-12-22T05:30:37;95620.22;;;5.39
80537;BMP280;69867;47.074;15.404;2023-12-22T05:33:03;95629.94;;;5.31
80537;BMP280;69867;47.074;15.404;2023-12-22T05:35:28;95639.56;;;5.26
80537;BMP280;69867;47.074;15.404;2023-12-22T05:37:54;95626.72;;;5.25
80537;BMP280;69867;47.074;15.404;2023-12-22T05:40:19;95651.81;;;5.18
80537;BMP280;69867;47.074;15.404;2023-12-22T05:42:44;95641.47;;;5.20
80537;BMP280;69867;47.074;15.404;2023-12-22T05:45:10;95664.63;;;5.20
80537;BMP280;69867;47.074;15.404;2023-12-22T05:47:35;95651.97;;;5.13
80537;BMP280;69867;47.074;15.404;2023-12-22T05:50:00;95662.25;;;5.13
80537;BMP280;69867;47.074;15.404;2023-12-22T05:52:26;95667.13;;;5.23
80537;BMP280;69867;47.074;15.404;2023-12-22T05:54:51;95672.19;;;5.26
80537;BMP280;69867;47.074;15.404;2023-12-22T05:57:17;95686.75;;;5.27
80537;BMP280;69867;47.074;15.404;2023-12-22T05:59:42;95692.00;;;5.24
80537;BMP280;69867;47.074;15.404;2023-12-22T06:02:08;95693.78;;;5.22
80537;BMP280;69867;47.074;15.404;2023-12-22T06:04:33;95676.75;;;5.16
80537;BMP280;69867;47.074;15.404;2023-12-22T06:06:59;95684.13;;;5.28
80537;BMP280;69867;47.074;15.404;2023-12-22T06:09:24;95698.66;;;5.29
80537;BMP280;69867;47.074;15.404;2023-12-22T06:11:49;95707.00;;;5.37
80537;BMP280;69867;47.074;15.404;2023-12-22T06:14:15;95695.38;;;5.51
80537;BMP280;69867;47.074;15.404;2023-12-22T06:16:40;95699.38;;;5.59
80537;BMP280;69867;47.074;15.404;2023-12-22T06:19:06;95715.69;;;5.60
80537;BMP280;69867;47.074;15.404;2023-12-22T06:21:31;95710.94;;;5.47
80537;BMP280;69867;47.074;15.404;2023-12-22T06:23:56;95718.34;;;5.57
80537;BMP280;69867;47.074;15.404;2023-12-22T06:26:22;95710.09;;;5.47
80537;BMP280;69867;47.074;15.404;2023-12-22T06:28:47;95703.63;;;5.35
80537;BMP280;69867;47.074;15.404;2023-12-22T06:31:17;95714.22;;;5.26
80537;BMP280;69867;47.074;15.404;2023-12-22T06:33:43;95715.25;;;5.47
80537;BMP280;69867;47.074;15.404;2023-12-22T06:36:20;95712.19;;;5.36
80537;BMP280;69867;47.074;15.404;2023-12-22T06:38:47;95708.13;;;5.29
80537;BMP280;69867;47.074;15.404;2023-12-22T06:41:23;95715.22;;;5.22
80537;BMP280;69867;47.074;15.404;2023-12-22T06:43:49;95722.22;;;5.17
80537;BMP280;69867;47.074;15.404;2023-12-22T06:46:18;95730.91;;;5.13
80537;BMP280;69867;47.074;15.404;2023-12-22T06:48:44;95736.06;;;5.13
80537;BMP280;69867;47.074;15.404;2023-12-22T06:53:48;95749.31;;;5.01
80537;BMP280;69867;47.074;15.404;2023-12-22T06:56:17;95741.69;;;4.98
80537;BMP280;69867;47.074;15.404;2023-12-22T06:58:42;95744.97;;;5.03
80537;BMP280;69867;47.074;15.404;2023-12-22T07:01:08;95770.09;;;4.95
80537;BMP280;69867;47.074;15.404;2023-12-22T07:03:33;95772.63;;;4.96
80537;BMP280;69867;47.074;15.404;2023-12-22T07:05:59;95777.72;;;4.98
80537;BMP280;69867;47.074;15.404;2023-12-22T07:08:24;95782.69;;;5.04
80537;BMP280;69867;47.074;15.404;2023-12-22T07:10:49;95793.91;;;5.01
80537;BMP280;69867;47.074;15.404;2023-12-22T07:13:15;95812.91;;;4.97
80537;BMP280;69867;47.074;15.404;2023-12-22T07:15:40;95818.16;;;4.94
80537;BMP280;69867;47.074;15.404;2023-12-22T07:18:05;95793.44;;;4.89
80537;BMP280;69867;47.074;15.404;2023-12-22T07:20:31;95772.84;;;4.89
80537;BMP280;69867;47.074;15.404;2023-12-22T07:22:57;95780.66;;;4.86
80537;BMP280;69867;47.074;15.404;2023-12-22T07:25:23;95781.63;;;4.81
80537;BMP280;69867;47.074;15.404;2023-12-22T07:27:48;95774.06;;;4.77
80537;BMP280;69867;47.074;15.404;2023-12-22T07:30:14;95768.06;;;4.76
80537;BMP280;69867;47.074;15.404;2023-12-22T07:32:39;95755.22;;;4.76
80537;BMP280;69867;47.074;15.404;2023-12-22T07:35:05;95775.88;;;4.73
80537;BMP280;69867;47.074;15.404;2023-12-22T07:37:30;95771.66;;;4.71
80537;BMP280;69867;47.074;15.404;2023-12-22T07:39:55;95775.16;;;4.68
80537;BMP280;69867;47.074;15.404;2023-12-22T07:42:21;95762.44;;;4.64
80537;BMP280;69867;47.074;15.404;2023-12-22T07:44:46;95771.91;;;4.63
80537;BMP280;69867;47.074;15.404;2023-12-22T07:47:11;95781.28;;;4.64
80537;BMP280;69867;47.074;15.404;2023-12-22T07:49:36;95774.41;;;4.65
80537;BMP280;69867;47.074;15.404;2023-12-22T07:52:02;95770.22;;;4.62
80537;BMP280;69867;47.074;15.404;2023-12-22T07:54:27;95766.75;;;4.63
80537;BMP280;69867;47.074;15.404;2023-12-22T07:56:53;95773.44;;;4.69
80537;BMP280;69867;47.074;15.404;2023-12-22T07:59:18;95763.16;;;4.69
80537;BMP280;69867;47.074;15.404;2023-12-22T08:01:43;95767.47;;;4.68
80537;BMP280;69867;47.074;15.404;2023-12-22T08:04:08;95764.78;;;4.71
80537;BMP280;69867;47.074;15.404;2023-12-22T08:06:35;95778.19;;;4.82
80537;BMP280;69867;47.074;15.404;2023-12-22T08:09:00;95801.25;;;4.86
80537;BMP280;69867;47.074;15.404;2023-12-22T08:11:25;95806.53;;;4.81
80537;BMP280;69867;47.074;15.404;2023-12-22T08:13:51;95818.50;;;4.82
80537;BMP280;69867;47.074;15.404;2023-12-22T08:16:16;95806.66;;;4.76
80537;BMP280;69867;47.074;15.404;2023-12-22T08:18:41;95793.66;;;4.81
80537;BMP280;69867;47.074;15.404;2023-12-22T08:21:07;95801.44;;;4.79
80537;BMP280;69867;47.074;15.404;2023-12-22T08:23:32;95801.34;;;4.82
80537;BMP280;69867;47.074;15.404;2023-12-22T08:25:58;95797.06;;;4.81
80537;BMP280;69867;47.074;15.404;2023-12-22T08:28:23;95845.75;;;4.89
80537;BMP280;69867;47.074;15.404;2023-12-22T08:30:48;95830.66;;;4.77
80537;BMP280;69867;47.074;15.404;2023-12-22T08:33:14;95829.00;;;4.74
80537;BMP280;69867;47.074;15.404;2023-12-22T08:35:41;95777.56;;;4.74
80537;BMP280;69867;47.074;15.404;2023-12-22T08:38:06;95801.66;;;4.72
80537;BMP280;69867;47.074;15.404;2023-12-22T08:40:31;95814.66;;;4.67
80537;BMP280;69867;47.074;15.404;2023-12-22T08:42:57;95834.97;;;4.76
80537;BMP280;69867;47.074;15.404;2023-12-22T08:45:22;95840.19;;;4.73
80537;BMP280;69867;47.074;15.404;2023-12-22T08:47:47;95829.94;;;4.72
80537;BMP280;69867;47.074;15.404;2023-12-22T08:50:13;95838.34;;;4.78
80537;BMP280;69867;47.074;15.404;2023-12-22T08:52:38;95840.19;;;4.73
80537;BMP280;69867;47.074;15.404;2023-12-22T08:55:04;95824.94;;;4.67
80537;BMP280;69867;47.074;15.404;2023-12-22T08:57:29;95824.94;;;4.67
80537;BMP280;69867;47.074;15.404;2023-12-22T08:59:55;95823.16;;;4.69
80537;BMP280;69867;47.074;15.404;2023-12-22T09:02:20;95825.69;;;4.71
80537;BMP280;69867;47.074;15.404;2023-12-22T09:04:45;95822.31;;;4.69
80537;BMP280;69867;47.074;15.404;2023-12-22T09:07:11;95826.53;;;4.71
80537;BMP280;69867;47.074;15.404;2023-12-22T09:09:36;95808.31;;;4.79
80537;BMP280;69867;47.074;15.404;2023-12-22T09:12:01;95785.09;;;4.80
80537;BMP280;69867;47.074;15.404;2023-12-22T09:14:27;95787.66;;;4.80
80537;BMP280;69867;47.074;15.404;2023-12-22T09:16:52;95792.69;;;4.85
80537;BMP280;69867;47.074;15.404;2023-12-22T09:19:18;95809.19;;;4.78
80537;BMP280;69867;47.074;15.404;2023-12-22T09:21:43;95820.59;;;4.69
80537;BMP280;69867;47.074;15.404;2023-12-22T09:24:08;95838.91;;;4.59
80537;BMP280;69867;47.074;15.404;2023-12-22T09:26:34;95826.06;;;4.57
80537;BMP280;69867;47.074;15.404;2023-12-22T09:28:59;95802.97;;;4.56
80537;BMP280;69867;47.074;15.404;2023-12-22T09:31:24;95789.09;;;4.61
80537;BMP280;69867;47.074;15.404;2023-12-22T09:33:49;95782.94;;;4.67
80537;BMP280;69867;47.074;15.404;2023-12-22T09:36:15;95816.28;;;4.70
80537;BMP280;69867;47.074;15.404;2023-12-22T09:38:41;95831.75;;;4.68
80537;BMP280;69867;47.074;15.404;2023-12-22T09:41:06;95833.38;;;4.72
80537;BMP280;69867;47.074;15.404;2023-12-22T09:43:34;95823.81;;;4.76
80537;BMP280;69867;47.074;15.404;2023-12-22T09:46:00;95843.97;;;4.91
80537;BMP280;69867;47.074;15.404;2023-12-22T09:48:27;95848.97;;;4.96
80537;BMP280;69867;47.074;15.404;2023-12-22T09:50:53;95815.44;;;4.99
80537;BMP280;69867;47.074;15.404;2023-12-22T09:53:19;95817.81;;;5.05
80537;BMP280;69867;47.074;15.404;2023-12-22T09:55:46;95845.28;;;5.04
80537;BMP280;69867;47.074;15.404;2023-12-22T09:58:13;95855.38;;;5.12
80537;BMP280;69867;47.074;15.404;2023-12-22T10:00:39;95836.59;;;5.08
80537;BMP280;69867;47.074;15.404;2023-12-22T10:03:06;95806.56;;;5.09
80537;BMP280;69867;47.074;15.404;2023-12-22T10:05:32;95829.66;;;5.10
80537;BMP280;69867;47.074;15.404;2023-12-22T10:08:00;95865.75;;;5.09
80537;BMP280;69867;47.074;15.404;2023-12-22T10:10:25;95834.03;;;5.08
80537;BMP280;69867;47.074;15.404;2023-12-22T10:12:52;95862.28;;;5.10
80537;BMP280;69867;47.074;15.404;2023-12-22T10:15:18;95864.88;;;5.10
80537;BMP280;69867;47.074;15.404;2023-12-22T10:17:44;95881.94;;;5.12
80537;BMP280;69867;47.074;15.404;2023-12-22T10:20:10;95895.47;;;5.19
80537;BMP280;69867;47.074;15.404;2023-12-22T10:22:35;95924.63;;;5.21
80537;BMP280;69867;47.074;15.404;2023-12-22T10:25:01;95947.94;;;5.15
80537;BMP280;69867;47.074;15.404;2023-12-22T10:27:26;95876.66;;;5.17
80537;BMP280;69867;47.074;15.404;2023-12-22T10:29:55;95886.91;;;5.20
80537;BMP280;69867;47.074;15.404;2023-12-22T10:32:22;95883.44;;;5.21
80537;BMP280;69867;47.074;15.404;2023-12-22T10:34:48;95861.13;;;5.22
80537;BMP280;69867;47.074;15.404;2023-12-22T10:37:13;95875.72;;;5.21
80537;BMP280;69867;47.074;15.404;2023-12-22T10:39:39;95870.53;;;5.23
80537;BMP280;69867;47.074;15.404;2023-12-22T10:42:05;95823.25;;;5.25
80537;BMP280;69867;47.074;15.404;2023-12-22T10:44:31;95847.25;;;5.26
80537;BMP280;69867;47.074;15.404;2023-12-22T10:46:57;95801.75;;;5.26
80537;BMP280;69867;47.074;15.404;2023-12-22T10:49:23;95794.69;;;5.33
80537;BMP280;69867;47.074;15.404;2023-12-22T10:51:49;95813.56;;;5.33
80537;BMP280;69867;47.074;15.404;2023-12-22T10:54:16;95841.72;;;5.38
80537;BMP280;69867;47.074;15.404;2023-12-22T10:56:41;95825.19;;;5.45
80537;BMP280;69867;47.074;15.404;2023-12-22T10:59:07;95830.91;;;5.55
80537;BMP280;69867;47.074;15.404;2023-12-22T11:01:35;95802.28;;;5.64
80537;BMP280;69867;47.074;15.404;2023-12-22T11:04:02;95783.16;;;5.71
80537;BMP280;69867;47.074;15.404;2023-12-22T11:06:37;95786.22;;;5.82
80537;BMP280;69867;47.074;15.404;2023-12-22T11:09:09;95782.56;;;5.89
80537;BMP280;69867;47.074;15.404;2023-12-22T11:11:36;95770.25;;;5.97
80537;BMP280;69867;47.074;15.404;2023-12-22T11:14:03;95771.16;;;5.96
80537;BMP280;69867;47.074;15.404;2023-12-22T11:16:29;95763.38;;;5.98
80537;BMP280;69867;47.074;15.404;2023-12-22T11:18:55;95761.69;;;5.97
80537;BMP280;69867;47.074;15.404;2023-12-22T11:21:22;95755.84;;;5.92
80537;BMP280;69867;47.074;15.404;2023-12-22T11:23:50;95758.41;;;5.92
80537;BMP280;69867;47.074;15.404;2023-12-22T11:26:16;95760.16;;;5.91
80537;BMP280;69867;47.074;15.404;2023-12-22T11:28:42;95758.47;;;5.90
80537;BMP280;69867;47.074;15.404;2023-12-22T11:31:10;95770.66;;;5.85
80537;BMP280;69867;47.074;15.404;2023-12-22T11:33:36;95776.59;;;5.87
80537;BMP280;69867;47.074;15.404;2023-12-22T11:36:03;95795.53;;;5.86
80537;BMP280;69867;47.074;15.404;2023-12-22T11:38:29;95804.25;;;5.82
80537;BMP280;69867;47.074;15.404;2023-12-22T11:40:54;95807.03;;;5.76
80537;BMP280;69867;47.074;15.404;2023-12-22T11:43:20;95821.69;;;5.74
80537;BMP280;69867;47.074;15.404;2023-12-22T11:45:49;95831.09;;;5.75
80537;BMP280;69867;47.074;15.404;2023-12-22T11:48:14;95802.91;;;5.70
80537;BMP280;69867;47.074;15.404;2023-12-22T11:50:41;95808.13;;;5.69
80537;BMP280;69867;47.074;15.404;2023-12-22T11:53:24;95767.75;;;5.69
80537;BMP280;69867;47.074;15.404;2023-12-22T11:56:05;95774.72;;;5.66
80537;BMP280;69867;47.074;15.404;2023-12-22T12:01:13;95760.06;;;5.68
80537;BMP280;69867;47.074;15.404;2023-12-22T12:03:51;95730.41;;;5.56
80537;BMP280;69867;47.074;15.404;2023-12-22T12:06:17;95722.91;;;5.49
80537;BMP280;69867;47.074;15.404;2023-12-22T12:08:46;95740.38;;;5.40
80537;BMP280;69867;47.074;15.404;2023-12-22T12:11:11;95743.84;;;5.39
80537;BMP280;69867;47.074;15.404;2023-12-22T12:13:42;95731.44;;;5.24
80537;BMP280;69867;47.074;15.404;2023-12-22T12:16:08;95714.38;;;5.22
80537;BMP280;69867;47.074;15.404;2023-12-22T12:18:34;95726.75;;;5.09
80537;BMP280;69867;47.074;15.404;2023-12-22T12:21:00;95722.53;;;5.06
80537;BMP280;69867;47.074;15.404;2023-12-22T12:23:26;95733.53;;;5.11
80537;BMP280;69867;47.074;15.404;2023-12-22T12:25:55;95741.31;;;5.10
80537;BMP280;69867;47.074;15.404;2023-12-22T12:28:31;95723.69;;;4.98
80537;BMP280;69867;47.074;15.404;2023-12-22T12:31:02;95738.22;;;4.99
80537;BMP280;69867;47.074;15.404;2023-12-22T12:33:28;95751.97;;;4.98
80537;BMP280;69867;47.074;15.404;2023-12-22T12:35:58;95766.72;;;4.93
80537;BMP280;69867;47.074;15.404;2023-12-22T12:38:54;95774.50;;;4.91
80537;BMP280;69867;47.074;15.404;2023-12-22T12:41:29;95768.97;;;5.03
80537;BMP280;69867;47.074;15.404;2023-12-22T12:43:54;95753.66;;;4.99
80537;BMP280;69867;47.074;15.404;2023-12-22T12:46:21;95737.34;;;5.00
80537;BMP280;69867;47.074;15.404;2023-12-22T12:48:47;95728.69;;;5.02
80537;BMP280;69867;47.074;15.404;2023-12-22T12:51:12;95742.91;;;5.14
80537;BMP280;69867;47.074;15.404;2023-12-22T12:53:37;95749.69;;;5.17
80537;BMP280;69867;47.074;15.404;2023-12-22T12:56:03;95764.34;;;5.14
80537;BMP280;69867;47.074;15.404;2023-12-22T12:58:30;95759.94;;;5.18
80537;BMP280;69867;47.074;15.404;2023-12-22T13:01:07;95755.63;;;5.19
80537;BMP280;69867;47.074;15.404;2023-12-22T13:03:33;95754.72;;;5.20
80537;BMP280;69867;47.074;15.404;2023-12-22T13:06:07;95758.97;;;5.22
80537;BMP280;69867;47.074;15.404;2023-12-22T13:08:33;95752.16;;;5.20
80537;BMP280;69867;47.074;15.404;2023-12-22T13:11:02;95766.75;;;5.19
80537;BMP280;69867;47.074;15.404;2023-12-22T13:13:27;95765.09;;;5.18
80537;BMP280;69867;47.074;15.404;2023-12-22T13:15:53;95760.03;;;5.15
80537;BMP280;69867;47.074;15.404;2023-12-22T13:18:18;95742.75;;;5.19
80537;BMP280;69867;47.074;15.404;2023-12-22T13:20:43;95752.22;;;5.18
80537;BMP280;69867;47.074;15.404;2023-12-22T13:23:09;95748.72;;;5.21
80537;BMP280;69867;47.074;15.404;2023-12-22T13:25:41;95748.03;;;5.14
80537;BMP280;69867;47.074;15.404;2023-12-22T13:28:06;95754.97;;;5.12
80537;BMP280;69867;47.074;15.404;2023-12-22T13:30:35;95759.47;;;5.05
80537;BMP280;69867;47.074;15.404;2023-12-22T13:33:01;95751.78;;;5.04
80537;BMP280;69867;47.074;15.404;2023-12-22T13:35:27;95737.28;;;5.01
80537;BMP280;69867;47.074;15.404;2023-12-22T13:37:53;95724.41;;;5.01
80537;BMP280;69867;47.074;15.404;2023-12-22T13:40:18;95739.03;;;5.01
80537;BMP280;69867;47.074;15.404;2023-12-22T13:42:44;95745.06;;;5.00
80537;BMP280;69867;47.074;15.404;2023-12-22T13:45:13;95764.16;;;4.93
80537;BMP280;69867;47.074;15.404;2023-12-22T13:47:42;95776.13;;;4.94
80537;BMP280;69867;47.074;15.404;2023-12-22T13:50:17;95776.19;;;4.92
80537;BMP280;69867;47.074;15.404;2023-12-22T13:52:42;95771.06;;;4.91
80537;BMP280;69867;47.074;15.404;2023-12-22T13:57:36;95768.63;;;4.86
80537;BMP280;69867;47.074;15.404;2023-12-22T14:00:02;95766.13;;;4.85
80537;BMP280;69867;47.074;15.404;2023-12-22T14:02:48;95767.84;;;4.84
80537;BMP280;69867;47.074;15.404;2023-12-22T14:05:13;95741.19;;;4.87
80537;BMP280;69867;47.074;15.404;2023-12-22T14:07:38;95740.25;;;4.89
80537;BMP280;69867;47.074;15.404;2023-12-22T14:10:05;95730.94;;;4.85
80537;BMP280;69867;47.074;15.404;2023-12-22T14:12:30;95729.09;;;4.89